Huvudsida
METAR-TAF:

METAR-TAF

Flygplatser :

Caracas, Venezuela

latitud: 10-36N, longitud: 066-59W, höjd: 43 m

Aktuellt väderrapport

Denna rapport gjordes för 2 timmar och 57 minuter sedan, klockan 04:01 UTC
Stilla vind
Temperatur 23°C
Fuktighet 89%
Tryck 1011 hPa
Sikt 10 km eller mer
Få moln på en höjd av 1600 ft

METAR: SVMI 260401Z 00000KT 9999 FEW016 23/21 Q1011

Tid: 02:58 (06:58 UTC)

Väderprognos

Denna rapport gjordes för 2 timmar och 58 minuter sedan, klockan 04:00 UTC
Prognos gäller från 26 kl. 06 UTC till 27 kl. 06 UTC
Vind 8 kt från ost
Sikt 10 km eller mer
Få moln på en höjd av 1600 ft
Blir
från 26 kl. 06 UTC till 26 kl. 10 UTC
Vind 11 kt från ost/nordost
Få moln på en höjd av 1600 ft
Spridda moln på en höjd av 2000 ft

TAF: SVMI 260400Z 2606/2706 08008KT 9999 FEW016 TX26/2612Z TN20/2606Z BECMG 2606/2610 06011KT FEW016 SCT020

Aktuella väderrapporter och prognoser från 4000 flygplatser (METAR- och TAF-rapporter).

De tillgängliga stationerna syns som gula och röda prickar på kartan.

För musen över prickarna för att se namnen på stationerna.

Klicka sedan för att få väderrapporter och prognoser.

För att ändra kartan: Klicka på de gröna knapparna med ett svart kors på för att zooma in; den gröna knappen med ett streck på för att zooma ut; eller på de gröna pilarna för angränsande kartor.


METAR-TAF: